Amarant — CQSF — position and weather

sailwx.info

Track history (hours):
 
Tides and Currents Weather Stations Pressure Air Temp Water Temp Dewpoint Dewpoint Depression Visibility Wind Speed Wind Dir Waves Ship Positions

Amarant

Last reported at 2016-Dec-10 16:33 UTC. Time now 2016-Dec-10 16:40 UTC.
Position N 51°15' E 004°22'.

Length 123 m; draft 7.3 m.

Type: Tanker. MMSI: 255623000.

Date/timePositionNaut miles runAvg speedWind from/ knotsBaromVisibWave heightAir tempDewpointWater temp
2016-Dec-10 16:33N 51°15' E 004°22'0 0.0
2016-Dec-10 15:33N 51°15' E 004°22'0 0.0
2016-Dec-10 14:33N 51°15' E 004°22'0 0.0
2016-Dec-10 13:33N 51°15' E 004°22'0 0.0
2016-Dec-10 12:33N 51°15' E 004°22'0 0.0
2016-Dec-10 11:33N 51°15' E 004°22'0 0.0
2016-Dec-10 10:33N 51°15' E 004°22'0 0.0
2016-Dec-10 09:33N 51°15' E 004°22'0 0.0
2016-Dec-10 08:33N 51°15' E 004°22'0 0.0
2016-Dec-10 07:33N 51°15' E 004°22'0 0.0
2016-Dec-10 06:33N 51°15' E 004°22'0 0.0
2016-Dec-10 05:33N 51°15' E 004°22'0 0.0
2016-Dec-10 04:33N 51°15' E 004°22'0 0.0
2016-Dec-10 03:33N 51°15' E 004°22'0 0.0
2016-Dec-10 02:33N 51°15' E 004°22'0 0.0
2016-Dec-10 01:33N 51°15' E 004°22'0 0.0
2016-Dec-10 00:33N 51°15' E 004°22'0 0.0
2016-Dec-09 23:33N 51°15' E 004°22'0 0.0
2016-Dec-09 22:33N 51°15' E 004°22'0 0.0
2016-Dec-09 21:33N 51°15' E 004°22'0 0.0
2016-Dec-09 20:33N 51°15' E 004°22'0 0.0
2016-Dec-09 19:33N 51°15' E 004°22'0 0.0
2016-Dec-09 18:33N 51°15' E 004°22'0 0.0
2016-Dec-09 17:33N 51°15' E 004°22'0 0.0
2016-Dec-09 16:33N 51°15' E 004°22'2 1.5
2016-Dec-09 15:33N 51°16' E 004°21'1 0.9
2016-Dec-09 14:31N 51°17' E 004°20'7 7.4
2016-Dec-09 13:33N 51°23' E 004°13'8 7.5
2016-Dec-09 12:33N 51°25' E 004°02'9 9.1
2016-Dec-09 11:33N 51°21' E 003°49'10 9.7
2016-Dec-09 10:33N 51°26' E 003°36'10 9.7
2016-Dec-09 09:33N 51°33' E 003°25'1211.9
2016-Dec-09 08:34N 51°43' E 003°15'4811.8
2016-Dec-09 04:29N 52°31' E 003°28'1213.2
2016-Dec-09 03:33N 52°42' E 003°36'19511.2
2016-Dec-08 10:09N 53°58' E 008°37'914.9
2016-Dec-08 09:33N 53°51' E 008°46'1313.0
2016-Dec-08 08:34N 53°53' E 009°08'1 0.9
2016-Dec-08 07:33N 53°54' E 009°09'5 4.9
2016-Dec-08 06:34N 53°58' E 009°15'7 6.7
2016-Dec-08 05:33N 54°04' E 009°19'5 4.9
2016-Dec-08 04:27N 54°09' E 009°22'13 5.8
2016-Dec-08 02:12N 54°17' E 009°39'5 6.8
2016-Dec-08 01:32N 54°21' E 009°45'5 5.3
2016-Dec-08 00:33N 54°21' E 009°54'5 5.3
2016-Dec-07 23:33N 54°22' E 010°03'3 3.4
2016-Dec-07 22:33N 54°22' E 010°09'5 4.6
2016-Dec-07 21:33N 54°26' E 010°13'1110.7
2016-Dec-07 20:33N 54°33' E 010°27'1211.9
2016-Dec-07 19:33N 54°35' E 010°47'1211.8
2016-Dec-07 18:33N 54°36' E 011°07'1212.5
2016-Dec-07 17:33N 54°32' E 011°27'1212.5
2016-Dec-07 16:33N 54°27' E 011°47'1211.8
2016-Dec-07 15:33N 54°27' E 012°07'1111.1
2016-Dec-07 14:31N 54°37' E 012°16'4012.1
2016-Dec-07 11:12N 54°55' E 013°19'911.8
2016-Dec-07 10:25N 54°58' E 013°34'1112.3
2016-Dec-07 09:32N 55°02' E 013°52'1211.8
2016-Dec-07 08:32N 55°08' E 014°09'1212.6
2016-Dec-07 07:33N 55°18' E 014°23'1312.9
2016-Dec-07 06:34N 55°28' E 014°37'1312.5
2016-Dec-07 05:34N 55°34' E 014°56'  
2016-Dec-03 02:28N 55°40' E 015°26'1213.4
2016-Dec-03 01:33N 55°33' E 015°09'1313.5
2016-Dec-03 00:33N 55°27' E 014°48'1312.8
2016-Dec-02 23:33N 55°18' E 014°31'1312.8
2016-Dec-02 22:33N 55°08' E 014°17'1312.7
2016-Dec-02 21:33N 54°60' E 014°00'1313.3
2016-Dec-02 20:33N 54°56' E 013°38'2713.4
2016-Dec-02 18:32N 54°47' E 012°53'1313.5
2016-Dec-02 17:33N 54°41' E 012°33'1212.0
2016-Dec-02 16:33N 54°33' E 012°18'3611.9
2016-Dec-02 13:33N 54°33' E 011°16'1514.7
2016-Dec-02 12:34N 54°34' E 010°51'1413.9
2016-Dec-02 11:34N 54°32' E 010°27'1211.9
2016-Dec-02 10:33N 54°24' E 010°12'3 2.9
2016-Dec-02 09:34N 54°22' E 010°08'5 4.8
2016-Dec-02 08:34N 54°21' E 010°00'6 5.7
2016-Dec-02 07:34N 54°22' E 009°50'7 7.3
2016-Dec-02 06:33N 54°17' E 009°40'7 7.5
2016-Dec-02 05:33N 54°12' E 009°32'10 7.4
2016-Dec-02 04:10N 54°05' E 009°19'5 8.1
2016-Dec-02 03:33N 53°60' E 009°18'7 6.8
2016-Dec-02 02:33N 53°55' E 009°11'1 1.5
2016-Dec-02 01:34N 53°54' E 009°09'3 2.6
2016-Dec-02 00:33N 53°53' E 009°13'9 9.2
2016-Dec-01 23:34N 53°46' E 009°24'1211.9
2016-Dec-01 22:33N 53°36' E 009°35'1211.9
2016-Dec-01 21:33N 53°32' E 009°54'4 4.4
2016-Dec-01 20:33N 53°29' E 009°58'0 0.0
2016-Dec-01 19:33N 53°29' E 009°58'0 0.0
2016-Dec-01 18:33N 53°29' E 009°58'0 0.0
2016-Dec-01 17:30N 53°29' E 009°58'0 0.0
2016-Dec-01 16:33N 53°29' E 009°58'0 0.0
2016-Dec-01 15:33N 53°29' E 009°58'0 0.0
2016-Dec-01 14:24N 53°29' E 009°58'0 0.0
2016-Dec-01 13:33N 53°29' E 009°58'0 0.0
2016-Dec-01 12:33N 53°29' E 009°58'0 0.0
2016-Dec-01 11:33N 53°29' E 009°58'0 0.0
2016-Dec-01 10:33N 53°29' E 009°58'0 0.0
2016-Dec-01 09:33N 53°29' E 009°58'0 0.0
2016-Dec-01 08:33N 53°29' E 009°58'0 0.0
2016-Dec-01 07:33N 53°29' E 009°58'0 0.0
2016-Dec-01 06:33N 53°29' E 009°58'0 0.0
2016-Dec-01 05:33N 53°29' E 009°58'0 0.0
2016-Dec-01 04:33N 53°29' E 009°58'0 0.0
2016-Dec-01 03:33N 53°29' E 009°58'0 0.0
2016-Dec-01 02:33N 53°29' E 009°58'0 0.0
2016-Dec-01 01:33N 53°29' E 009°58'0 0.0
2016-Dec-01 00:33N 53°29' E 009°58'0 0.0
2016-Nov-30 23:30N 53°29' E 009°58'0 0.0
2016-Nov-30 22:33N 53°29' E 009°58'0 0.0
2016-Nov-30 21:33N 53°29' E 009°58'0 0.0
2016-Nov-30 20:33N 53°29' E 009°58'0 0.0
2016-Nov-30 19:33N 53°29' E 009°58'0 0.0
2016-Nov-30 18:33N 53°29' E 009°58'0 0.0
2016-Nov-30 17:30N 53°29' E 009°58'0 0.0
2016-Nov-30 16:33N 53°29' E 009°58'  
Track history (hours):
 
Tides and Currents Weather Stations Pressure Air Temp Water Temp Dewpoint Dewpoint Depression Visibility Wind Speed Wind Dir Waves Ship Positions

Amarant

Last reported at 2016-Dec-10 16:33 UTC. Time now 2016-Dec-10 16:40 UTC.
Position N 51°15' E 004°22'.

Length 123 m; draft 7.3 m.

Type: Tanker. MMSI: 255623000.

Date/timePositionNaut miles runAvg speedWind from/ knotsBaromVisibWave heightAir tempDewpointWater temp
2016-Dec-10 16:33N 51°15' E 004°22'0 0.0
2016-Dec-10 15:33N 51°15' E 004°22'0 0.0
2016-Dec-10 14:33N 51°15' E 004°22'0 0.0
2016-Dec-10 13:33N 51°15' E 004°22'0 0.0
2016-Dec-10 12:33N 51°15' E 004°22'0 0.0
2016-Dec-10 11:33N 51°15' E 004°22'0 0.0
2016-Dec-10 10:33N 51°15' E 004°22'0 0.0
2016-Dec-10 09:33N 51°15' E 004°22'0 0.0
2016-Dec-10 08:33N 51°15' E 004°22'0 0.0
2016-Dec-10 07:33N 51°15' E 004°22'0 0.0
2016-Dec-10 06:33N 51°15' E 004°22'0 0.0
2016-Dec-10 05:33N 51°15' E 004°22'0 0.0
2016-Dec-10 04:33N 51°15' E 004°22'0 0.0
2016-Dec-10 03:33N 51°15' E 004°22'0 0.0
2016-Dec-10 02:33N 51°15' E 004°22'0 0.0
2016-Dec-10 01:33N 51°15' E 004°22'0 0.0
2016-Dec-10 00:33N 51°15' E 004°22'0 0.0
2016-Dec-09 23:33N 51°15' E 004°22'0 0.0
2016-Dec-09 22:33N 51°15' E 004°22'0 0.0
2016-Dec-09 21:33N 51°15' E 004°22'0 0.0
2016-Dec-09 20:33N 51°15' E 004°22'0 0.0
2016-Dec-09 19:33N 51°15' E 004°22'0 0.0
2016-Dec-09 18:33N 51°15' E 004°22'0 0.0
2016-Dec-09 17:33N 51°15' E 004°22'0 0.0
2016-Dec-09 16:33N 51°15' E 004°22'2 1.5
2016-Dec-09 15:33N 51°16' E 004°21'1 0.9
2016-Dec-09 14:31N 51°17' E 004°20'7 7.4
2016-Dec-09 13:33N 51°23' E 004°13'8 7.5
2016-Dec-09 12:33N 51°25' E 004°02'9 9.1
2016-Dec-09 11:33N 51°21' E 003°49'10 9.7
2016-Dec-09 10:33N 51°26' E 003°36'10 9.7
2016-Dec-09 09:33N 51°33' E 003°25'1211.9
2016-Dec-09 08:34N 51°43' E 003°15'4811.8
2016-Dec-09 04:29N 52°31' E 003°28'1213.2
2016-Dec-09 03:33N 52°42' E 003°36'19511.2
2016-Dec-08 10:09N 53°58' E 008°37'914.9
2016-Dec-08 09:33N 53°51' E 008°46'1313.0
2016-Dec-08 08:34N 53°53' E 009°08'1 0.9
2016-Dec-08 07:33N 53°54' E 009°09'5 4.9
2016-Dec-08 06:34N 53°58' E 009°15'7 6.7
2016-Dec-08 05:33N 54°04' E 009°19'5 4.9
2016-Dec-08 04:27N 54°09' E 009°22'13 5.8
2016-Dec-08 02:12N 54°17' E 009°39'5 6.8
2016-Dec-08 01:32N 54°21' E 009°45'5 5.3
2016-Dec-08 00:33N 54°21' E 009°54'5 5.3
2016-Dec-07 23:33N 54°22' E 010°03'3 3.4
2016-Dec-07 22:33N 54°22' E 010°09'5 4.6
2016-Dec-07 21:33N 54°26' E 010°13'1110.7
2016-Dec-07 20:33N 54°33' E 010°27'1211.9
2016-Dec-07 19:33N 54°35' E 010°47'1211.8
2016-Dec-07 18:33N 54°36' E 011°07'1212.5
2016-Dec-07 17:33N 54°32' E 011°27'1212.5
2016-Dec-07 16:33N 54°27' E 011°47'1211.8
2016-Dec-07 15:33N 54°27' E 012°07'1111.1
2016-Dec-07 14:31N 54°37' E 012°16'4012.1
2016-Dec-07 11:12N 54°55' E 013°19'911.8
2016-Dec-07 10:25N 54°58' E 013°34'1112.3
2016-Dec-07 09:32N 55°02' E 013°52'1211.8
2016-Dec-07 08:32N 55°08' E 014°09'1212.6
2016-Dec-07 07:33N 55°18' E 014°23'1312.9
2016-Dec-07 06:34N 55°28' E 014°37'1312.5
2016-Dec-07 05:34N 55°34' E 014°56'  
2016-Dec-03 02:28N 55°40' E 015°26'1213.4
2016-Dec-03 01:33N 55°33' E 015°09'1313.5
2016-Dec-03 00:33N 55°27' E 014°48'1312.8
2016-Dec-02 23:33N 55°18' E 014°31'1312.8
2016-Dec-02 22:33N 55°08' E 014°17'1312.7
2016-Dec-02 21:33N 54°60' E 014°00'1313.3
2016-Dec-02 20:33N 54°56' E 013°38'2713.4
2016-Dec-02 18:32N 54°47' E 012°53'1313.5
2016-Dec-02 17:33N 54°41' E 012°33'1212.0
2016-Dec-02 16:33N 54°33' E 012°18'3611.9
2016-Dec-02 13:33N 54°33' E 011°16'1514.7
2016-Dec-02 12:34N 54°34' E 010°51'1413.9
2016-Dec-02 11:34N 54°32' E 010°27'1211.9
2016-Dec-02 10:33N 54°24' E 010°12'3 2.9
2016-Dec-02 09:34N 54°22' E 010°08'5 4.8
2016-Dec-02 08:34N 54°21' E 010°00'6 5.7
2016-Dec-02 07:34N 54°22' E 009°50'7 7.3
2016-Dec-02 06:33N 54°17' E 009°40'7 7.5
2016-Dec-02 05:33N 54°12' E 009°32'10 7.4
2016-Dec-02 04:10N 54°05' E 009°19'5 8.1
2016-Dec-02 03:33N 53°60' E 009°18'7 6.8
2016-Dec-02 02:33N 53°55' E 009°11'1 1.5
2016-Dec-02 01:34N 53°54' E 009°09'3 2.6
2016-Dec-02 00:33N 53°53' E 009°13'9 9.2
2016-Dec-01 23:34N 53°46' E 009°24'1211.9
2016-Dec-01 22:33N 53°36' E 009°35'1211.9
2016-Dec-01 21:33N 53°32' E 009°54'4 4.4
2016-Dec-01 20:33N 53°29' E 009°58'0 0.0
2016-Dec-01 19:33N 53°29' E 009°58'0 0.0
2016-Dec-01 18:33N 53°29' E 009°58'0 0.0
2016-Dec-01 17:30N 53°29' E 009°58'0 0.0
2016-Dec-01 16:33N 53°29' E 009°58'0 0.0
2016-Dec-01 15:33N 53°29' E 009°58'0 0.0
2016-Dec-01 14:24N 53°29' E 009°58'0 0.0
2016-Dec-01 13:33N 53°29' E 009°58'0 0.0
2016-Dec-01 12:33N 53°29' E 009°58'0 0.0
2016-Dec-01 11:33N 53°29' E 009°58'0 0.0
2016-Dec-01 10:33N 53°29' E 009°58'0 0.0
2016-Dec-01 09:33N 53°29' E 009°58'0 0.0
2016-Dec-01 08:33N 53°29' E 009°58'0 0.0
2016-Dec-01 07:33N 53°29' E 009°58'0 0.0
2016-Dec-01 06:33N 53°29' E 009°58'0 0.0
2016-Dec-01 05:33N 53°29' E 009°58'0 0.0
2016-Dec-01 04:33N 53°29' E 009°58'0 0.0
2016-Dec-01 03:33N 53°29' E 009°58'0 0.0
2016-Dec-01 02:33N 53°29' E 009°58'0 0.0
2016-Dec-01 01:33N 53°29' E 009°58'0 0.0
2016-Dec-01 00:33N 53°29' E 009°58'0 0.0
2016-Nov-30 23:30N 53°29' E 009°58'0 0.0
2016-Nov-30 22:33N 53°29' E 009°58'0 0.0
2016-Nov-30 21:33N 53°29' E 009°58'0 0.0
2016-Nov-30 20:33N 53°29' E 009°58'0 0.0
2016-Nov-30 19:33N 53°29' E 009°58'0 0.0
2016-Nov-30 18:33N 53°29' E 009°58'0 0.0
2016-Nov-30 17:30N 53°29' E 009°58'0 0.0
2016-Nov-30 16:33N 53°29' E 009°58'  

Dump ship's entire track history